Time;durP1;ratioP1;P1;durP2;ratioP2;P2;SDS_P1;SDS_P2;PMS_P1;PMS_P2;Temp;Humidity;BMP_temperature;BMP_pressure;BME280_temperature;BME280_humidity;BME280_pressure;Samples;Min_cycle;Max_cycle;Signal;HPM_P1;HPM_P2
2022/10/11 00:02:24;;;;;;;52.13;36.17;;;15.10;99.90;;;;;;5074099;28;20120;-54
2022/10/11 00:04:50;;;;;;;46.95;35.88;;;15.10;99.90;;;;;;5073584;28;20086;-56
2022/10/11 00:07:19;;;;;;;45.95;36.42;;;15.10;99.90;;;;;;5074490;28;20383;-56
2022/10/11 00:09:45;;;;;;;48.88;36.97;;;15.20;99.90;;;;;;5070328;28;20111;-57
2022/10/11 00:12:11;;;;;;;72.78;46.85;;;15.10;99.90;;;;;;5075147;28;20532;-60
2022/10/11 00:14:38;;;;;;;40.63;33.83;;;15.00;99.90;;;;;;5074701;28;20124;-58
2022/10/11 00:17:06;;;;;;;43.35;32.78;;;15.00;99.90;;;;;;5074473;28;20024;-58
2022/10/11 00:19:32;;;;;;;42.22;32.85;;;14.90;99.90;;;;;;5075164;28;20025;-58
2022/10/11 00:21:58;;;;;;;46.17;33.70;;;15.00;99.90;;;;;;5074943;28;20079;-56
2022/10/11 00:24:24;;;;;;;45.40;34.38;;;14.90;99.90;;;;;;5055545;28;20040;-58
2022/10/11 00:26:49;;;;;;;40.88;33.70;;;14.80;99.90;;;;;;5074742;28;20333;-57
2022/10/11 00:29:15;;;;;;;45.22;34.50;;;14.80;99.90;;;;;;5072444;28;20447;-56
2022/10/11 00:31:41;;;;;;;42.90;34.17;;;14.90;99.90;;;;;;5074640;28;20107;-55
2022/10/11 00:34:08;;;;;;;45.88;35.47;;;14.90;99.90;;;;;;5074894;28;20028;-56
2022/10/11 00:36:35;;;;;;;44.70;34.85;;;14.90;99.90;;;;;;5073365;28;20033;-57
2022/10/11 00:39:00;;;;;;;41.38;34.78;;;14.90;99.90;;;;;;5075490;28;20060;-58
2022/10/11 00:41:26;;;;;;;42.35;35.00;;;14.90;99.90;;;;;;5073888;28;20063;-55
2022/10/11 00:44:11;;;;;;;41.22;34.38;;;15.00;99.90;;;;;;5049773;28;20045;-57
2022/10/11 00:46:37;;;;;;;40.00;33.42;;;14.90;99.90;;;;;;5070590;28;20500;-59
2022/10/11 00:49:16;;;;;;;47.67;36.20;;;14.90;99.90;;;;;;5074555;28;20035;-56
2022/10/11 00:52:05;;;;;;;44.00;36.35;;;14.90;99.90;;;;;;5073708;28;20506;-59
2022/10/11 00:54:35;;;;;;;41.85;35.38;;;14.90;99.90;;;;;;5074574;28;20048;-59
2022/10/11 00:57:05;;;;;;;44.28;35.60;;;14.80;99.90;;;;;;5074535;28;20017;-58
2022/10/11 00:59:39;;;;;;;45.78;37.03;;;14.80;99.90;;;;;;5073549;28;20078;-56
2022/10/11 01:02:06;;;;;;;47.83;36.95;;;14.80;99.90;;;;;;5070267;28;20059;-59
2022/10/11 01:04:32;;;;;;;48.40;38.53;;;14.70;99.90;;;;;;5073603;28;20422;-59
2022/10/11 01:07:00;;;;;;;45.10;37.95;;;14.80;99.90;;;;;;5073650;28;20064;-56
2022/10/11 01:09:26;;;;;;;46.40;38.53;;;14.80;99.90;;;;;;5074088;28;20436;-58
2022/10/11 01:11:55;;;;;;;42.97;38.03;;;14.70;99.90;;;;;;5073242;28;20048;-58
2022/10/11 01:14:20;;;;;;;47.58;37.10;;;14.80;99.90;;;;;;5074194;28;20434;-55
2022/10/11 01:17:10;;;;;;;50.80;36.80;;;14.70;99.90;;;;;;5071080;28;20044;-57
2022/10/11 01:19:54;;;;;;;51.13;38.53;;;14.70;99.90;;;;;;5073459;28;20036;-56
2022/10/11 01:23:10;;;;;;;51.13;39.47;;;14.70;99.90;;;;;;5073667;28;20028;-56
2022/10/11 01:26:14;;;;;;;54.42;39.60;;;14.70;99.90;;;;;;5066439;28;20029;-58
2022/10/11 01:28:58;;;;;;;50.83;37.53;;;14.70;99.90;;;;;;5011602;28;20058;-56
2022/10/11 01:31:42;;;;;;;44.33;37.03;;;14.70;99.90;;;;;;5011311;28;20034;-59
2022/10/11 01:34:16;;;;;;;47.97;38.63;;;14.70;99.90;;;;;;5009903;28;20041;-57
2022/10/11 01:36:49;;;;;;;52.22;39.55;;;14.70;99.90;;;;;;5010886;28;20148;-56
2022/10/11 01:39:22;;;;;;;49.85;40.38;;;14.70;99.90;;;;;;5010390;28;20513;-57
2022/10/11 01:41:52;;;;;;;57.15;46.47;;;14.60;99.90;;;;;;5005081;28;20156;-58
2022/10/11 01:44:19;;;;;;;61.67;47.67;;;14.60;99.90;;;;;;5010807;28;20030;-55
2022/10/11 01:46:44;;;;;;;71.05;49.45;;;14.60;99.90;;;;;;5007962;28;20046;-56
2022/10/11 01:49:10;;;;;;;71.55;51.53;;;14.70;99.90;;;;;;5010720;28;20084;-59
2022/10/11 01:51:41;;;;;;;76.28;51.78;;;14.70;99.90;;;;;;5009321;28;20042;-57
2022/10/11 01:54:21;;;;;;;74.80;53.00;;;14.60;99.90;;;;;;5007005;28;20030;-57
2022/10/11 01:57:01;;;;;;;74.60;52.13;;;14.70;99.90;;;;;;5007764;28;20276;-58
2022/10/11 01:59:30;;;;;;;69.15;51.05;;;14.70;99.90;;;;;;5010567;28;20048;-58
2022/10/11 02:02:27;;;;;;;71.38;50.33;;;14.70;99.90;;;;;;5008932;28;20414;-56
2022/10/11 02:05:13;;;;;;;76.55;52.42;;;14.70;99.90;;;;;;5027085;28;20225;-61
2022/10/11 02:07:50;;;;;;;65.20;48.80;;;14.70;99.90;;;;;;4994502;28;20502;-57
2022/10/11 02:10:34;;;;;;;65.03;48.45;;;14.70;99.90;;;;;;5010127;28;20146;-54
2022/10/11 02:13:08;;;;;;;64.05;49.28;;;;;;;;;;5010409;28;20038;-55
2022/10/11 02:15:36;;;;;;;65.25;49.35;;;;;;;;;;4993658;28;20041;-57
2022/10/11 02:18:03;;;;;;;60.17;49.45;;;;;;;;;;5009974;28;20551;-57
2022/10/11 02:20:32;;;;;;;65.22;48.67;;;;;;;;;;5010919;28;20029;-55
2022/10/11 02:23:09;;;;;;;63.40;48.25;;;14.50;99.90;;;;;;5010590;28;20034;-57
2022/10/11 02:25:36;;;;;;;68.60;49.03;;;14.40;99.90;;;;;;5007420;28;20052;-55
2022/10/11 02:28:08;;;;;;;67.82;49.42;;;14.30;99.90;;;;;;5004244;28;20363;-61
2022/10/11 02:30:36;;;;;;;66.55;48.88;;;14.30;99.90;;;;;;5010641;28;20073;-59
2022/10/11 02:33:04;;;;;;;63.40;48.00;;;14.20;99.90;;;;;;5010367;28;20165;-57
2022/10/11 02:35:35;;;;;;;60.70;46.67;;;14.20;99.90;;;;;;5010282;28;20108;-56
2022/10/11 02:38:01;;;;;;;51.75;42.47;;;;;;;;;;5010464;28;20128;-61
2022/10/11 02:40:32;;;;;;;49.80;41.42;;;13.90;99.90;;;;;;5009888;28;20208;-58
2022/10/11 02:43:18;;;;;;;48.20;39.53;;;13.90;99.90;;;;;;5006250;28;20441;-60
2022/10/11 02:45:56;;;;;;;44.97;37.50;;;13.80;99.90;;;;;;5062104;28;20127;-61
2022/10/11 02:48:24;;;;;;;43.05;35.83;;;13.80;99.90;;;;;;5070025;28;20501;-58
2022/10/11 02:50:50;;;;;;;45.35;34.85;;;13.70;99.90;;;;;;5071922;28;20093;-59
2022/10/11 02:53:16;;;;;;;40.72;32.65;;;13.70;99.90;;;;;;5071823;28;20451;-56
2022/10/11 02:55:41;;;;;;;43.67;32.90;;;13.60;99.90;;;;;;5071514;28;20052;-60
2022/10/11 02:58:07;;;;;;;43.78;33.88;;;13.70;99.90;;;;;;5071644;28;20380;-61
2022/10/11 03:00:33;;;;;;;43.55;33.53;;;;;;;;;;5072346;28;20106;-57
2022/10/11 03:02:59;;;;;;;41.50;31.98;;;14.00;99.90;;;;;;5072205;28;20109;-59
2022/10/11 03:05:24;;;;;;;43.38;33.47;;;13.90;99.90;;;;;;5071598;28;20467;-60
2022/10/11 03:07:50;;;;;;;40.88;32.05;;;14.20;99.90;;;;;;5070394;28;20044;-60
2022/10/11 03:10:16;;;;;;;38.63;29.75;;;14.10;99.90;;;;;;5071764;28;20047;-60
2022/10/11 03:12:42;;;;;;;39.42;30.33;;;14.10;99.90;;;;;;5072049;28;20032;-59
2022/10/11 03:15:08;;;;;;;40.95;30.52;;;13.90;99.90;;;;;;5053020;28;20152;-58
2022/10/11 03:17:33;;;;;;;36.67;28.88;;;13.90;99.90;;;;;;5070251;28;20049;-60
2022/10/11 03:19:59;;;;;;;39.22;30.08;;;13.90;99.90;;;;;;5067821;28;20027;-58
2022/10/11 03:22:25;;;;;;;37.67;29.15;;;13.80;99.90;;;;;;5071949;28;20056;-61
2022/10/11 03:24:50;;;;;;;38.70;29.10;;;13.90;99.90;;;;;;5071785;28;20071;-59
2022/10/11 03:27:16;;;;;;;40.80;30.48;;;13.90;99.90;;;;;;5051867;28;20040;-59
2022/10/11 03:29:42;;;;;;;34.40;28.35;;;14.00;99.90;;;;;;5075525;28;20032;-58
2022/10/11 03:32:08;;;;;;;40.15;30.13;;;14.00;99.90;;;;;;5075198;28;20115;-56
2022/10/11 03:34:33;;;;;;;36.10;27.88;;;13.90;99.90;;;;;;5076526;28;20024;-57
2022/10/11 03:36:59;;;;;;;34.00;27.92;;;13.80;99.90;;;;;;5075690;28;20467;-57
2022/10/11 03:39:25;;;;;;;42.40;28.48;;;13.70;99.90;;;;;;5074884;28;20558;-57
2022/10/11 03:41:50;;;;;;;34.83;27.30;;;13.70;99.90;;;;;;5074003;28;20097;-61
2022/10/11 03:44:16;;;;;;;35.38;27.38;;;13.60;99.90;;;;;;5075009;28;20055;-60
2022/10/11 03:46:42;;;;;;;37.47;27.73;;;13.60;99.90;;;;;;5075001;28;20103;-57
2022/10/11 03:49:08;;;;;;;39.00;28.98;;;13.70;99.90;;;;;;5074790;28;20033;-60
2022/10/11 03:51:33;;;;;;;33.53;28.45;;;13.60;99.90;;;;;;5075446;28;20024;-57
2022/10/11 03:53:59;;;;;;;40.22;30.38;;;13.70;99.90;;;;;;5074828;28;20029;-57
2022/10/11 03:56:25;;;;;;;36.60;28.92;;;13.90;99.90;;;;;;5073924;28;20052;-57
2022/10/11 03:58:51;;;;;;;37.10;29.02;;;14.10;99.90;;;;;;5075450;28;20077;-60
2022/10/11 04:01:16;;;;;;;31.40;27.42;;;14.20;99.90;;;;;;5075020;28;20036;-58
2022/10/11 04:03:42;;;;;;;43.10;30.10;;;14.30;99.90;;;;;;5075166;28;20464;-61
2022/10/11 04:06:08;;;;;;;36.90;29.42;;;14.30;99.90;;;;;;5052324;28;20098;-59
2022/10/11 04:08:33;;;;;;;42.08;30.08;;;14.20;99.90;;;;;;5075225;28;20029;-63
2022/10/11 04:10:59;;;;;;;40.92;30.05;;;14.30;99.90;;;;;;5074402;28;20028;-60
2022/10/11 04:13:25;;;;;;;42.75;29.67;;;14.50;99.90;;;;;;5074753;28;20488;-59
2022/10/11 04:15:51;;;;;;;39.47;30.48;;;14.60;99.90;;;;;;5057188;28;20025;-60
2022/10/11 04:18:16;;;;;;;37.20;30.33;;;14.70;99.90;;;;;;5074058;28;20377;-56
2022/10/11 04:20:42;;;;;;;35.28;31.05;;;14.70;99.90;;;;;;5075081;28;20057;-59
2022/10/11 04:23:08;;;;;;;41.10;31.88;;;14.80;99.90;;;;;;5075376;28;20035;-60
2022/10/11 04:25:33;;;;;;;40.45;30.27;;;14.80;99.90;;;;;;5074648;28;20032;-60
2022/10/11 04:27:59;;;;;;;36.28;30.05;;;14.80;99.90;;;;;;5070973;28;20074;-55
2022/10/11 04:30:25;;;;;;;36.58;30.65;;;14.80;99.90;;;;;;5071161;28;20079;-56
2022/10/11 04:32:51;;;;;;;40.65;31.50;;;14.80;99.90;;;;;;5072902;28;20068;-58
2022/10/11 04:35:16;;;;;;;39.88;30.92;;;14.90;99.90;;;;;;5067895;28;20523;-56
2022/10/11 04:37:42;;;;;;;39.92;31.20;;;14.80;99.90;;;;;;5071240;28;20500;-59
2022/10/11 04:40:09;;;;;;;39.22;31.50;;;14.60;99.90;;;;;;5021904;28;20052;-60
2022/10/11 04:42:34;;;;;;;40.53;30.55;;;14.50;99.90;;;;;;5022954;28;20444;-59
2022/10/11 04:45:00;;;;;;;42.05;31.02;;;14.40;99.90;;;;;;5038689;28;23193;-57
2022/10/11 04:47:26;;;;;;;38.65;31.55;;;14.40;99.90;;;;;;5070904;28;20492;-58
2022/10/11 04:49:52;;;;;;;41.72;32.85;;;14.50;99.90;;;;;;5071556;28;20041;-58
2022/10/11 04:52:17;;;;;;;45.47;31.15;;;14.60;99.90;;;;;;5069617;28;20029;-57
2022/10/11 04:54:43;;;;;;;37.72;30.00;;;14.60;99.90;;;;;;5064946;28;20036;-56
2022/10/11 04:57:09;;;;;;;37.60;30.52;;;14.60;99.90;;;;;;5037881;28;20066;-57
2022/10/11 04:59:34;;;;;;;41.78;31.98;;;14.60;99.90;;;;;;5074016;28;20033;-58
2022/10/11 05:02:00;;;;;;;42.42;31.27;;;14.70;99.90;;;;;;5073743;28;20103;-59
2022/10/11 05:04:26;;;;;;;38.58;30.63;;;14.70;99.90;;;;;;5073986;28;20036;-55
2022/10/11 05:06:52;;;;;;;46.40;32.33;;;14.50;99.90;;;;;;5004339;28;20053;-56
2022/10/11 05:09:18;;;;;;;42.67;30.88;;;14.50;99.90;;;;;;5074006;28;20036;-56
2022/10/11 05:11:43;;;;;;;47.33;31.83;;;14.40;99.90;;;;;;5073334;28;20085;-56
2022/10/11 05:14:09;;;;;;;42.63;31.02;;;14.40;99.90;;;;;;5073434;28;20025;-56
2022/10/11 05:16:35;;;;;;;37.45;30.92;;;14.40;99.90;;;;;;5073929;28;20341;-55
2022/10/11 05:19:00;;;;;;;44.05;31.88;;;14.50;99.90;;;;;;5074016;28;20048;-56
2022/10/11 05:21:27;;;;;;;44.40;34.75;;;14.60;99.90;;;;;;5073311;28;20107;-55
2022/10/11 05:23:55;;;;;;;40.30;31.80;;;14.60;99.90;;;;;;5073960;28;20040;-55
2022/10/11 05:26:21;;;;;;;39.78;31.77;;;14.60;99.90;;;;;;5073063;28;20023;-56
2022/10/11 05:28:47;;;;;;;40.53;33.72;;;14.60;99.90;;;;;;5073432;28;20177;-55
2022/10/11 05:31:13;;;;;;;42.20;31.83;;;14.60;99.90;;;;;;5073662;28;20543;-56
2022/10/11 05:33:39;;;;;;;42.22;31.95;;;14.60;99.90;;;;;;5073883;28;20028;-56
2022/10/11 05:36:05;;;;;;;49.35;38.65;;;14.70;99.90;;;;;;5073369;28;20525;-56
2022/10/11 05:38:31;;;;;;;44.88;33.13;;;14.70;99.90;;;;;;5072885;28;20021;-56
2022/10/11 05:41:04;;;;;;;38.58;31.58;;;14.60;99.90;;;;;;5073378;28;20077;-56
2022/10/11 05:43:30;;;;;;;44.60;33.17;;;14.40;99.90;;;;;;5073994;28;20021;-55
2022/10/11 05:45:56;;;;;;;41.75;35.03;;;14.40;99.90;;;;;;5072835;28;20143;-56
2022/10/11 05:48:23;;;;;;;45.67;36.70;;;;;;;;;;5072932;28;20033;-58
2022/10/11 05:50:49;;;;;;;43.92;36.83;;;14.40;99.90;;;;;;5054124;28;20039;-57
2022/10/11 05:53:14;;;;;;;47.08;36.72;;;14.20;99.90;;;;;;5072763;28;20472;-56
2022/10/11 05:55:42;;;;;;;51.55;39.30;;;14.10;99.90;;;;;;5072742;28;20028;-55
2022/10/11 05:58:12;;;;;;;47.33;38.95;;;14.00;99.90;;;;;;5067811;28;20413;-56
2022/10/11 06:00:38;;;;;;;52.22;42.78;;;14.10;99.90;;;;;;5069580;28;20550;-55
2022/10/11 06:03:06;;;;;;;58.10;44.55;;;14.20;99.90;;;;;;5070075;28;20041;-56
2022/10/11 06:05:33;;;;;;;55.70;42.75;;;14.20;99.90;;;;;;5070183;28;20592;-56
2022/10/11 06:07:59;;;;;;;61.70;44.83;;;14.20;99.90;;;;;;5064014;28;20044;-56
2022/10/11 06:10:25;;;;;;;64.85;47.80;;;14.10;99.90;;;;;;5069167;28;20045;-56
2022/10/11 06:12:51;;;;;;;63.10;46.72;;;14.30;99.90;;;;;;5010788;28;20030;-56
2022/10/11 06:15:16;;;;;;;58.10;43.83;;;14.30;99.90;;;;;;5011092;28;20128;-56
2022/10/11 06:17:42;;;;;;;59.20;47.78;;;14.30;99.90;;;;;;5010972;28;20108;-55
2022/10/11 06:20:09;;;;;;;66.78;49.58;;;14.30;99.90;;;;;;5011026;28;20022;-56
2022/10/11 06:22:34;;;;;;;60.20;46.78;;;14.40;99.90;;;;;;4985465;28;20069;-57
2022/10/11 06:25:00;;;;;;;63.30;46.28;;;14.40;99.90;;;;;;4991666;28;20068;-56
2022/10/11 06:27:26;;;;;;;61.42;45.15;;;14.40;99.90;;;;;;4991107;28;20046;-56
2022/10/11 08:16:51;;;;;;;43.15;34.22;;;16.70;99.90;;;;;;4446787;28;19019361;-51
2022/10/11 08:19:17;;;;;;;47.20;38.50;;;16.70;99.90;;;;;;5118523;27;20612;-50
2022/10/11 08:21:43;;;;;;;53.70;40.50;;;16.60;99.90;;;;;;5060703;28;20466;-53
2022/10/11 08:24:12;;;;;;;46.13;38.38;;;16.80;99.90;;;;;;5107900;27;20055;-49
2022/10/11 08:26:39;;;;;;;49.78;38.08;;;16.90;99.90;;;;;;5105130;28;20512;-53
2022/10/11 08:29:05;;;;;;;47.15;33.53;;;16.90;99.90;;;;;;5109349;27;20031;-50
2022/10/11 08:31:33;;;;;;;45.53;36.63;;;16.90;99.90;;;;;;5102985;27;20463;-49
2022/10/11 08:33:58;;;;;;;51.47;39.00;;;17.10;99.90;;;;;;5097749;27;20107;-52
2022/10/11 08:36:24;;;;;;;51.78;42.45;;;17.10;99.90;;;;;;5103326;28;20115;-50
2022/10/11 08:38:50;;;;;;;50.55;40.15;;;;;;;;;;5051350;28;20040;-49
2022/10/11 08:41:19;;;;;;;54.47;39.80;;;17.20;99.90;;;;;;5034337;28;20048;-51
2022/10/11 08:44:24;;;;;;;55.28;36.65;;;17.30;99.90;;;;;;5048786;28;20152;-49
2022/10/11 08:47:24;;;;;;;53.53;38.00;;;17.30;99.90;;;;;;4980988;28;20038;-49
2022/10/11 08:49:50;;;;;;;57.45;39.88;;;17.40;99.90;;;;;;4971074;28;20054;-49
2022/10/11 08:52:26;;;;;;;54.17;39.50;;;17.50;99.90;;;;;;4968044;28;20585;-50
2022/10/11 08:55:10;;;;;;;66.10;44.25;;;17.40;99.90;;;;;;4938197;28;20071;-50
2022/10/11 08:57:38;;;;;;;56.03;40.30;;;17.40;99.90;;;;;;4970248;28;20162;-48
2022/10/11 09:00:07;;;;;;;59.22;45.33;;;17.50;99.90;;;;;;4972062;28;20075;-49
2022/10/11 09:02:57;;;;;;;61.80;44.53;;;17.50;99.90;;;;;;4972542;28;20019;-49
2022/10/11 09:05:26;;;;;;;61.63;44.15;;;17.60;99.90;;;;;;4971995;28;20402;-49
2022/10/11 09:08:30;;;;;;;62.80;47.03;;;17.70;99.90;;;;;;4969705;28;20030;-49
2022/10/11 09:11:21;;;;;;;52.88;39.72;;;17.60;99.90;;;;;;5028027;28;20559;-49
2022/10/11 09:13:58;;;;;;;58.97;42.63;;;17.70;99.90;;;;;;5030737;28;20033;-48
2022/10/11 09:16:53;;;;;;;58.13;43.28;;;17.60;99.90;;;;;;5025035;28;20534;-50
2022/10/11 09:19:27;;;;;;;65.43;47.15;;;17.70;99.90;;;;;;5030368;28;20037;-50
2022/10/11 09:22:01;;;;;;;56.60;43.90;;;17.70;99.90;;;;;;5028507;28;20044;-49
2022/10/11 09:24:46;;;;;;;58.42;44.00;;;17.70;99.90;;;;;;5069712;28;20562;-49
2022/10/11 09:27:19;;;;;;;63.00;44.55;;;17.70;99.90;;;;;;5036906;28;20044;-52
2022/10/11 09:29:56;;;;;;;58.38;42.63;;;17.80;99.90;;;;;;5062481;28;20123;-50
2022/10/11 09:32:23;;;;;;;55.42;40.55;;;17.60;99.90;;;;;;5066182;28;20484;-51
2022/10/11 09:34:58;;;;;;;58.65;42.22;;;17.70;99.90;;;;;;5033328;28;20048;-51
2022/10/11 09:37:40;;;;;;;55.70;42.75;;;17.50;99.90;;;;;;5064263;28;20119;-50
2022/10/11 09:40:24;;;;;;;54.95;41.20;;;17.60;99.90;;;;;;5068827;28;20498;-50
2022/10/11 09:42:50;;;;;;;54.25;41.05;;;17.40;99.90;;;;;;5069863;28;20040;-50
2022/10/11 09:45:18;;;;;;;53.50;38.20;;;17.60;99.90;;;;;;5015660;28;20032;-51
2022/10/11 09:47:45;;;;;;;48.38;39.17;;;17.40;99.90;;;;;;5052572;28;20098;-51
2022/10/11 09:50:18;;;;;;;54.60;40.65;;;17.50;99.90;;;;;;5060937;28;20045;-50
2022/10/11 09:52:53;;;;;;;54.25;38.75;;;17.50;99.90;;;;;;5065027;28;20403;-50
2022/10/11 09:55:49;;;;;;;54.05;40.90;;;17.70;99.90;;;;;;5070373;28;20512;-51
2022/10/11 09:58:30;;;;;;;45.55;36.40;;;17.90;99.90;;;;;;5092872;28;20044;-50
2022/10/11 10:00:58;;;;;;;48.20;35.38;;;17.90;99.90;;;;;;5092275;28;20119;-50
2022/10/11 10:03:32;;;;;;;50.72;36.75;;;18.10;99.90;;;;;;5091496;28;20035;-52
2022/10/11 10:06:20;;;;;;;48.50;38.53;;;18.10;99.90;;;;;;5091719;28;20043;-49
2022/10/11 10:08:46;;;;;;;45.83;37.10;;;18.30;99.90;;;;;;5091623;28;20115;-52
2022/10/11 10:11:13;;;;;;;46.45;39.00;;;18.10;99.90;;;;;;5092961;28;20435;-52
2022/10/11 10:13:50;;;;;;;44.53;34.67;;;18.40;99.90;;;;;;5091526;28;20038;-57
2022/10/11 10:16:30;;;;;;;46.10;35.63;;;;;;;;;;5092399;28;20095;-49
2022/10/11 10:19:02;;;;;;;43.63;33.60;;;18.80;99.90;;;;;;5110695;28;20063;-50
2022/10/11 10:21:32;;;;;;;50.25;33.90;;;19.00;99.90;;;;;;5111619;28;20122;-53
2022/10/11 10:24:02;;;;;;;40.45;33.33;;;19.20;99.90;;;;;;5110167;28;20042;-63
2022/10/11 10:26:29;;;;;;;40.10;32.97;;;19.30;99.90;;;;;;5111065;28;20023;-52
2022/10/11 10:28:56;;;;;;;42.08;35.78;;;19.10;99.90;;;;;;5110985;28;20458;-52
2022/10/11 10:31:27;;;;;;;41.97;33.30;;;19.20;99.90;;;;;;5078072;28;20035;-52
2022/10/11 10:33:54;;;;;;;38.70;30.38;;;19.30;99.90;;;;;;5111284;28;20057;-51
2022/10/11 10:36:27;;;;;;;41.55;29.77;;;19.40;99.90;;;;;;5112047;28;20169;-53
2022/10/11 10:39:20;;;;;;;45.20;31.67;;;19.40;99.90;;;;;;5110260;28;20039;-53
2022/10/11 10:41:46;;;;;;;42.05;33.65;;;19.40;99.90;;;;;;5083128;28;20065;-53
2022/10/11 10:44:14;;;;;;;40.15;33.10;;;19.50;99.90;;;;;;5112399;28;20068;-58
2022/10/11 10:46:55;;;;;;;43.05;33.90;;;19.80;99.90;;;;;;5111441;28;20055;-56
2022/10/11 10:49:27;;;;;;;35.90;30.17;;;19.90;99.90;;;;;;5111785;28;20172;-58
2022/10/11 10:51:56;;;;;;;36.78;30.48;;;;;;;;;;5111872;28;20054;-52
2022/10/11 10:54:28;;;;;;;33.78;27.98;;;20.30;99.90;;;;;;5108747;28;20480;-52
2022/10/11 10:57:22;;;;;;;35.13;28.20;;;20.10;99.90;;;;;;5081636;28;20390;-52
2022/10/11 11:00:20;;;;;;;32.45;25.50;;;20.30;99.90;;;;;;5027124;28;20527;-52
2022/10/11 11:02:50;;;;;;;34.92;28.60;;;;;;;;;;5025393;28;20495;-52
2022/10/11 11:05:22;;;;;;;36.58;29.33;;;20.60;99.90;;;;;;5029129;28;20041;-52
2022/10/11 11:08:26;;;;;;;39.35;31.23;;;20.50;99.90;;;;;;5028662;28;20051;-53
2022/10/11 11:11:00;;;;;;;40.40;31.55;;;20.30;99.90;;;;;;5027292;28;20064;-52
2022/10/11 11:14:07;;;;;;;39.60;31.15;;;20.30;99.90;;;;;;5028796;28;20040;-52
2022/10/11 11:16:48;;;;;;;40.00;31.60;;;20.50;99.90;;;;;;5008748;28;20056;-52
2022/10/11 11:19:52;;;;;;;38.10;30.67;;;20.70;99.90;;;;;;5006474;28;20040;-52
2022/10/11 11:22:35;;;;;;;33.55;28.00;;;20.70;99.90;;;;;;5008464;28;20066;-53
2022/10/11 11:25:23;;;;;;;37.67;29.92;;;20.40;99.90;;;;;;5009066;28;20038;-52
2022/10/11 11:28:24;;;;;;;34.40;30.73;;;20.50;99.90;;;;;;4990394;28;20477;-52
2022/10/11 11:31:16;;;;;;;37.67;30.80;;;20.40;99.90;;;;;;4988584;28;20042;-53
2022/10/11 11:34:19;;;;;;;34.38;29.10;;;20.40;99.90;;;;;;4970823;28;20042;-52
2022/10/11 11:37:14;;;;;;;39.10;32.28;;;20.40;99.90;;;;;;4995704;28;20055;-53
2022/10/11 11:39:48;;;;;;;38.92;31.90;;;20.40;99.90;;;;;;5018876;28;20469;-50
2022/10/11 11:42:52;;;;;;;38.72;31.55;;;20.70;99.90;;;;;;4987668;28;20037;-54
2022/10/11 11:45:40;;;;;;;39.22;30.63;;;20.50;99.90;;;;;;5024788;28;20550;-51
2022/10/11 11:48:13;;;;;;;46.17;32.45;;;20.30;99.90;;;;;;5040247;28;20037;-56
2022/10/11 11:50:45;;;;;;;39.30;31.00;;;20.60;99.90;;;;;;5046406;28;20057;-51
2022/10/11 11:53:17;;;;;;;38.10;32.13;;;20.70;99.90;;;;;;5048228;28;20037;-50
2022/10/11 11:55:56;;;;;;;46.00;33.88;;;20.60;99.90;;;;;;5006340;28;20124;-51
2022/10/11 11:58:22;;;;;;;42.65;32.33;;;20.50;99.90;;;;;;5009962;28;20519;-51
2022/10/11 12:01:19;;;;;;;48.90;37.25;;;20.50;99.90;;;;;;5012314;28;20042;-49
2022/10/11 12:03:51;;;;;;;44.72;35.67;;;20.40;99.90;;;;;;5007843;28;20038;-54
2022/10/11 12:06:28;;;;;;;49.28;39.08;;;20.40;99.90;;;;;;5011753;28;20125;-49
2022/10/11 12:09:00;;;;;;;49.10;38.85;;;20.30;99.90;;;;;;5011979;28;20172;-49
2022/10/11 12:12:14;;;;;;;56.25;38.28;;;20.20;99.90;;;;;;5062358;28;20127;-50
2022/10/11 12:14:41;;;;;;;52.08;40.88;;;20.50;99.90;;;;;;5042707;28;20048;-49
2022/10/11 12:17:12;;;;;;;54.08;42.65;;;20.50;99.90;;;;;;5015421;28;20512;-49
2022/10/11 12:19:41;;;;;;;57.08;43.40;;;20.40;99.90;;;;;;5066060;28;20502;-51
2022/10/11 12:22:18;;;;;;;53.15;42.90;;;;;;;;;;5035773;28;20127;-50
2022/10/11 12:24:57;;;;;;;57.15;43.55;;;20.40;99.90;;;;;;5071076;28;20055;-51
2022/10/11 12:27:40;;;;;;;64.18;45.20;;;20.60;99.90;;;;;;5105305;28;20097;-51
2022/10/11 12:30:46;;;;;;;58.90;44.05;;;20.80;99.90;;;;;;5114130;28;20028;-49
2022/10/11 12:33:24;;;;;;;59.35;43.00;;;20.50;99.90;;;;;;5110095;28;20106;-50
2022/10/11 12:35:50;;;;;;;56.20;44.97;;;;;;;;;;5113436;28;20020;-49
2022/10/11 12:38:28;;;;;;;53.72;44.10;;;20.80;99.90;;;;;;5115076;28;20027;-50
2022/10/11 12:41:17;;;;;;;52.95;44.28;;;21.00;99.90;;;;;;5107777;28;20027;-51
2022/10/11 12:43:49;;;;;;;56.05;43.65;;;21.20;99.90;;;;;;4992001;28;20045;-51
2022/10/11 12:46:27;;;;;;;52.53;42.58;;;21.10;99.90;;;;;;5010760;28;20499;-51
2022/10/11 12:49:11;;;;;;;51.75;41.35;;;;;;;;;;5009931;28;20045;-49
2022/10/11 12:51:40;;;;;;;54.70;43.40;;;21.20;99.90;;;;;;5011305;28;20508;-51
2022/10/11 12:54:20;;;;;;;54.65;43.92;;;21.30;99.90;;;;;;5010430;28;20463;-51
2022/10/11 12:57:07;;;;;;;53.20;42.45;;;21.40;99.90;;;;;;5011706;28;20033;-49
2022/10/11 12:59:33;;;;;;;56.55;43.30;;;21.60;99.90;;;;;;5027398;28;20034;-50
2022/10/11 13:01:59;;;;;;;52.28;42.13;;;;;;;;;;5011034;28;20131;-50
2022/10/11 13:04:31;;;;;;;47.92;40.08;;;21.90;99.90;;;;;;5010674;28;20046;-49
2022/10/11 13:18:58;;;;;;;49.42;41.30;;;22.60;99.90;;;;;;5054216;28;20385;-51
2022/10/11 13:21:31;;;;;;;47.47;39.15;;;22.50;99.90;;;;;;5043184;28;20499;-52
2022/10/11 13:24:15;;;;;;;44.15;36.17;;;22.60;99.90;;;;;;5038517;28;20032;-50
2022/10/11 13:26:44;;;;;;;41.47;36.00;;;22.50;99.90;;;;;;5053072;28;20053;-50
2022/10/11 13:29:20;;;;;;;41.67;33.75;;;22.50;99.90;;;;;;5013001;28;20026;-51
2022/10/11 13:31:48;;;;;;;36.35;32.03;;;22.60;99.90;;;;;;5026306;28;20042;-51
2022/10/11 13:34:14;;;;;;;36.80;32.05;;;22.50;99.90;;;;;;5002290;28;20119;-52
2022/10/11 13:36:40;;;;;;;38.45;31.60;;;22.30;99.90;;;;;;5028426;28;20036;-51
2022/10/11 13:39:07;;;;;;;42.83;34.25;;;22.00;99.90;;;;;;5013020;28;20128;-51
2022/10/11 13:41:34;;;;;;;42.22;33.75;;;22.00;99.90;;;;;;4994948;28;20048;-51
2022/10/11 13:44:01;;;;;;;42.10;33.17;;;22.00;99.90;;;;;;5029495;28;20057;-50
2022/10/11 13:46:29;;;;;;;43.60;33.38;;;21.80;99.90;;;;;;5027122;28;20068;-51
2022/10/11 13:49:00;;;;;;;38.45;32.15;;;21.70;99.90;;;;;;5022238;28;20041;-50
2022/10/11 13:51:36;;;;;;;46.07;33.37;;;21.50;99.90;;;;;;5024214;28;20037;-51
2022/10/11 13:54:07;;;;;;;39.53;28.60;;;21.50;99.90;;;;;;5002484;28;20042;-50
2022/10/11 13:56:45;;;;;;;35.03;29.85;;;21.30;99.90;;;;;;5028904;28;20038;-51
2022/10/11 13:59:21;;;;;;;35.60;31.65;;;21.10;99.90;;;;;;5023537;28;20040;-50
2022/10/11 14:01:51;;;;;;;34.80;30.17;;;21.20;99.90;;;;;;5022235;28;20030;-52
2022/10/11 14:04:17;;;;;;;38.72;29.83;;;;;;;;;;5034159;28;20030;-50
2022/10/11 14:06:47;;;;;;;36.63;30.83;;;21.00;99.90;;;;;;5041988;28;20076;-49
2022/10/11 14:09:37;;;;;;;37.22;29.55;;;21.20;99.90;;;;;;5028646;28;20038;-52
2022/10/11 14:12:42;;;;;;;34.42;30.88;;;21.10;99.90;;;;;;5003414;28;20065;-52
2022/10/11 14:15:27;;;;;;;37.28;33.38;;;20.90;99.90;;;;;;5002191;28;20034;-55
2022/10/11 14:17:53;;;;;;;36.10;32.25;;;20.80;99.90;;;;;;4995391;28;20201;-53
2022/10/11 14:20:20;;;;;;;35.38;31.60;;;20.70;99.90;;;;;;4985350;28;20068;-52
2022/10/11 14:22:48;;;;;;;35.08;31.52;;;20.60;99.90;;;;;;4993288;28;20039;-54
2022/10/11 14:25:14;;;;;;;34.58;30.88;;;20.60;99.90;;;;;;4988442;28;20026;-52
2022/10/11 14:27:41;;;;;;;33.83;30.20;;;20.40;99.90;;;;;;4989740;28;20398;-58
2022/10/11 14:30:15;;;;;;;37.30;31.38;;;20.30;99.90;;;;;;4990794;28;20042;-59
2022/10/11 14:32:41;;;;;;;34.95;31.45;;;20.20;99.90;;;;;;4984631;28;20046;-56
2022/10/11 14:35:15;;;;;;;37.22;31.23;;;20.10;99.90;;;;;;4989335;28;20037;-54
2022/10/11 14:37:41;;;;;;;35.67;31.95;;;20.10;99.90;;;;;;4985689;28;20576;-54
2022/10/11 14:40:17;;;;;;;40.10;35.05;;;20.20;99.90;;;;;;4989252;28;20508;-55
2022/10/11 14:42:43;;;;;;;43.55;38.92;;;20.20;99.90;;;;;;4989589;28;20505;-51
2022/10/11 14:45:09;;;;;;;43.78;37.65;;;20.30;99.90;;;;;;4990503;28;20030;-53
2022/10/11 14:47:36;;;;;;;39.38;34.97;;;20.20;99.90;;;;;;4989342;28;20046;-55
2022/10/11 14:50:35;;;;;;;39.70;35.65;;;20.30;99.90;;;;;;4979553;28;20042;-54
2022/10/11 14:53:02;;;;;;;39.38;34.03;;;20.30;99.90;;;;;;5011794;28;20477;-53
2022/10/11 14:55:29;;;;;;;42.20;36.88;;;20.30;99.90;;;;;;5021896;28;20037;-54
2022/10/11 14:57:55;;;;;;;40.08;35.63;;;20.30;99.90;;;;;;5026251;28;20107;-56
2022/10/11 15:00:25;;;;;;;41.58;33.40;;;20.20;99.90;;;;;;5019736;28;20405;-56